Time;durP1;ratioP1;P1;durP2;ratioP2;P2;SDS_P1;SDS_P2;PMS_P1;PMS_P2;Temp;Humidity;BMP_temperature;BMP_pressure;BME280_temperature;BME280_humidity;BME280_pressure;Samples;Min_cycle;Max_cycle;Signal;HPM_P1;HPM_P2
2021/03/01 00:03:15;;;;;;;8.13;5.57;;;;;;;7.89;59.18;101864.19;10309340;28;20054;-69
2021/03/01 00:08:16;;;;;;;9.60;7.50;;;;;;;7.88;59.71;101879.25;10303751;28;20046;-69
2021/03/01 00:13:19;;;;;;;8.85;7.05;;;;;;;7.83;60.17;101870.63;10299838;28;20055;-69
2021/03/01 00:18:20;;;;;;;10.85;8.00;;;;;;;7.75;60.13;101878.91;10306270;28;20524;-69
2021/03/01 00:23:22;;;;;;;7.75;6.82;;;;;;;7.71;60.60;101876.47;10303372;28;20053;-70
2021/03/01 00:28:23;;;;;;;9.43;7.65;;;;;;;7.69;60.79;101873.88;10311001;28;20521;-69
2021/03/01 00:33:24;;;;;;;10.85;7.18;;;;;;;7.66;60.68;101876.66;10308982;28;20077;-70
2021/03/01 00:38:25;;;;;;;10.98;8.25;;;;;;;7.66;60.95;101871.34;10309308;28;20065;-69
2021/03/01 00:43:32;;;;;;;10.07;7.80;;;;;;;7.57;61.28;101882.34;10337597;28;20087;-71
2021/03/01 00:48:33;;;;;;;10.98;7.43;;;;;;;7.48;61.43;101880.94;10329083;28;20112;-70
2021/03/01 00:53:35;;;;;;;7.82;7.03;;;;;;;7.47;61.27;101873.91;10297751;28;20150;-70
2021/03/01 00:58:36;;;;;;;10.63;7.45;;;;;;;7.38;61.12;101869.00;10303503;28;20054;-70
2021/03/01 01:03:38;;;;;;;8.77;6.97;;;;;;;7.42;61.21;101876.75;10307444;28;20053;-72
2021/03/01 01:08:39;;;;;;;11.38;6.80;;;;;;;7.41;60.90;101863.56;10303630;28;20501;-69
2021/03/01 01:13:41;;;;;;;8.40;7.05;;;;;;;7.37;61.07;101862.84;10311902;28;20050;-70
2021/03/01 01:18:42;;;;;;;8.23;6.47;;;;;;;7.40;60.88;101868.03;10304349;28;20061;-70
2021/03/01 01:23:44;;;;;;;11.05;7.07;;;;;;;7.39;60.55;101857.47;10306226;28;20046;-69
2021/03/01 01:28:45;;;;;;;8.43;6.50;;;;;;;7.31;60.35;101856.91;10312127;28;20126;-68
2021/03/01 01:33:46;;;;;;;8.90;6.75;;;;;;;7.22;60.75;101858.16;10306033;28;20054;-69
2021/03/01 01:38:47;;;;;;;7.53;6.35;;;;;;;7.10;61.09;101850.72;10306122;28;20062;-69
2021/03/01 01:43:49;;;;;;;10.50;6.72;;;;;;;7.12;61.46;101856.84;10305406;28;20497;-70
2021/03/01 01:48:50;;;;;;;10.23;7.20;;;;;;;7.07;61.51;101849.03;10308001;28;20457;-69
2021/03/01 01:53:51;;;;;;;8.85;7.25;;;;;;;7.01;61.64;101850.19;10300629;28;20501;-71
2021/03/01 01:58:53;;;;;;;10.38;6.93;;;;;;;6.97;61.90;101851.22;10307097;28;20046;-70
2021/03/01 02:04:00;;;;;;;13.00;7.18;;;;;;;6.89;62.85;101846.22;10305232;28;20057;-69
2021/03/01 02:09:13;;;;;;;9.50;7.20;;;;;;;6.94;63.04;101848.69;10295004;28;20055;-69
2021/03/01 02:14:21;;;;;;;11.60;7.32;;;;;;;6.92;63.19;101845.25;10324568;28;20116;-69
2021/03/01 02:19:24;;;;;;;12.30;7.80;;;;;;;6.95;63.07;101844.25;10322352;28;20157;-68
2021/03/01 02:24:31;;;;;;;9.35;7.38;;;;;;;6.89;63.46;101834.75;10294645;28;20053;-71
2021/03/01 02:29:34;;;;;;;10.82;8.80;;;;;;;6.88;63.85;101833.06;10294897;28;20302;-72
2021/03/01 02:34:38;;;;;;;9.75;7.68;;;;;;;6.78;63.90;101832.53;10303993;28;20062;-68
2021/03/01 02:39:43;;;;;;;11.23;7.67;;;;;;;6.68;64.34;101832.06;10298320;28;20113;-68
2021/03/01 02:44:45;;;;;;;10.75;7.97;;;;;;;6.74;63.88;101828.31;10309670;28;20038;-68
2021/03/01 02:49:47;;;;;;;10.63;7.80;;;;;;;6.73;64.03;101829.22;10306422;28;20072;-69
2021/03/01 02:54:51;;;;;;;14.50;9.00;;;;;;;6.66;64.35;101836.53;10303057;28;20065;-68
2021/03/01 02:59:56;;;;;;;10.85;7.90;;;;;;;6.56;64.30;101837.84;10299471;28;20489;-68
2021/03/01 03:05:00;;;;;;;11.90;8.88;;;;;;;6.60;64.93;101831.47;10285090;28;20065;-69
2021/03/01 03:10:03;;;;;;;10.77;8.90;;;;;;;6.54;64.67;101842.28;10306753;28;20054;-69
2021/03/01 03:15:06;;;;;;;10.55;8.32;;;;;;;6.43;65.45;101841.88;10312566;28;20294;-68
2021/03/01 03:20:09;;;;;;;14.23;9.60;;;;;;;6.44;65.01;101838.28;10321881;28;20070;-73
2021/03/01 03:25:11;;;;;;;12.32;9.25;;;;;;;6.46;65.11;101842.59;10295168;28;20050;-70
2021/03/01 03:30:21;;;;;;;12.48;9.18;;;;;;;6.48;65.17;101840.75;10313740;28;20046;-69
2021/03/01 03:35:23;;;;;;;12.45;9.68;;;;;;;6.40;65.56;101836.69;10314028;28;20054;-69
2021/03/01 03:40:26;;;;;;;12.18;9.52;;;;;;;6.40;65.72;101834.03;10325410;28;20062;-67
2021/03/01 03:45:27;;;;;;;11.48;9.30;;;;;;;6.35;65.89;101832.44;10307566;28;20089;-69
2021/03/01 03:50:30;;;;;;;13.77;10.02;;;;;;;6.28;65.85;101822.13;10301095;28;20054;-68
2021/03/01 03:55:34;;;;;;;13.63;10.40;;;;;;;6.27;66.00;101823.91;10292805;28;20464;-69
2021/03/01 04:00:37;;;;;;;14.45;10.77;;;;;;;6.29;66.30;101823.84;10299538;28;20050;-68
2021/03/01 04:05:42;;;;;;;16.85;10.43;;;;;;;6.17;66.33;101830.44;10291869;28;20051;-68
2021/03/01 04:10:48;;;;;;;15.68;11.68;;;;;;;6.13;66.57;101829.72;10300040;28;20059;-70
2021/03/01 04:15:50;;;;;;;17.08;11.77;;;;;;;6.06;66.81;101837.91;10298596;28;20493;-67
2021/03/01 04:20:56;;;;;;;17.15;12.32;;;;;;;6.06;66.68;101833.50;10305226;28;20039;-68
2021/03/01 04:25:59;;;;;;;13.93;10.65;;;;;;;5.97;67.09;101839.97;10305398;28;20513;-68
2021/03/01 04:31:03;;;;;;;14.18;11.70;;;;;;;5.94;67.00;101845.31;10305800;28;20501;-67
2021/03/01 04:36:06;;;;;;;16.23;11.68;;;;;;;5.95;66.76;101841.78;10307827;28;20061;-69
2021/03/01 04:41:07;;;;;;;16.55;11.68;;;;;;;5.84;67.08;101843.97;10313207;28;20548;-67
2021/03/01 04:46:11;;;;;;;16.42;13.15;;;;;;;5.81;67.54;101849.31;10315367;28;20050;-67
2021/03/01 04:51:13;;;;;;;15.75;12.93;;;;;;;5.64;68.27;101856.09;10310497;28;20053;-69
2021/03/01 04:56:14;;;;;;;20.17;12.65;;;;;;;5.70;68.20;101856.78;10308396;28;20050;-69
2021/03/01 05:01:17;;;;;;;16.92;13.10;;;;;;;5.71;67.86;101859.38;10306201;28;20121;-68
2021/03/01 05:06:20;;;;;;;14.40;11.52;;;;;;;5.56;68.26;101849.31;10301576;28;20080;-69
2021/03/01 05:11:33;;;;;;;16.40;12.30;;;;;;;5.60;67.94;101851.81;10299579;28;20054;-68
2021/03/01 05:16:35;;;;;;;19.48;14.00;;;;;;;5.53;68.16;101849.44;10323363;28;20485;-70
2021/03/01 05:21:36;;;;;;;17.75;12.88;;;;;;;5.55;67.76;101850.22;10303086;28;20046;-68
2021/03/01 05:26:38;;;;;;;18.73;13.65;;;;;;;5.61;67.11;101857.94;10300695;28;20470;-69
2021/03/01 05:31:40;;;;;;;14.88;13.10;;;;;;;5.46;67.69;101854.94;10296666;28;20054;-68
2021/03/01 05:36:43;;;;;;;16.20;12.32;;;;;;;5.34;67.98;101859.75;10313014;28;20069;-69
2021/03/01 05:41:46;;;;;;;16.85;13.32;;;;;;;5.25;68.33;101850.34;10299826;28;20050;-69
2021/03/01 05:46:49;;;;;;;16.38;13.23;;;;;;;5.23;67.90;101853.03;10301583;28;20046;-72
2021/03/01 05:51:51;;;;;;;16.15;13.40;;;;;;;5.14;67.92;101853.34;10301614;28;20420;-66
2021/03/01 05:56:53;;;;;;;15.55;13.43;;;;;;;5.12;67.62;101860.44;10309533;28;20413;-69
2021/03/01 06:01:55;;;;;;;14.98;12.65;;;;;;;5.02;67.90;101859.00;10311095;28;21395;-68
2021/03/01 06:06:57;;;;;;;15.27;12.18;;;;;;;4.90;67.82;101865.53;10295317;28;20070;-72
2021/03/01 06:11:58;;;;;;;14.15;12.50;;;;;;;4.88;68.02;101873.50;10315414;28;20118;-70
2021/03/01 06:17:18;;;;;;;14.38;12.60;;;;;;;4.83;68.31;101880.66;10298459;28;20042;-67
2021/03/01 06:22:39;;;;;;;14.15;12.25;;;;;;;4.89;68.17;101877.84;10302522;28;20129;-70
2021/03/01 06:28:00;;;;;;;15.50;12.65;;;;;;;4.88;68.20;101878.78;10326345;28;20049;-69
2021/03/01 06:33:02;;;;;;;13.02;11.73;;;;;;;4.87;68.03;101886.72;10315528;28;20042;-67
2021/03/01 06:38:16;;;;;;;13.27;11.82;;;;;;;4.76;68.54;101895.84;10301296;28;20050;-69
2021/03/01 06:43:17;;;;;;;12.07;10.52;;;;;;;4.85;67.95;101897.34;10301383;28;20054;-69
2021/03/01 06:48:29;;;;;;;15.70;12.45;;;;;;;4.85;68.05;101902.63;10295511;28;20055;-68
2021/03/01 06:53:31;;;;;;;12.23;10.25;;;;;;;4.87;68.15;101892.88;10294003;28;20050;-69
2021/03/01 06:58:40;;;;;;;12.85;11.15;;;;;;;4.81;68.41;101897.47;10291744;28;20058;-69
2021/03/01 07:03:48;;;;;;;12.43;11.02;;;;;;;4.95;68.31;101905.81;10301733;28;20046;-69
2021/03/01 07:08:54;;;;;;;12.38;11.07;;;;;;;5.09;67.85;101908.06;10294140;28;20046;-69
2021/03/01 07:14:05;;;;;;;10.48;9.45;;;;;;;5.05;68.19;101917.84;10304814;28;20125;-70
2021/03/01 07:19:23;;;;;;;11.50;10.40;;;;;;;5.13;67.73;101915.84;10296316;28;20078;-69
2021/03/01 07:24:27;;;;;;;11.90;10.52;;;;;;;5.17;68.04;101927.16;10299017;28;20050;-71
2021/03/01 07:29:34;;;;;;;11.68;10.48;;;;;;;5.39;67.56;101922.06;10299246;28;20129;-70
2021/03/01 07:34:36;;;;;;;12.70;11.13;;;;;;;5.69;67.48;101923.72;10300298;28;20058;-70
2021/03/01 07:39:38;;;;;;;11.13;10.02;;;;;;;6.26;65.28;101930.63;10297524;28;20054;-70
2021/03/01 07:44:41;;;;;;;11.18;10.07;;;;;;;6.32;64.03;101934.81;10288934;28;20548;-71
2021/03/01 07:49:42;;;;;;;10.48;9.35;;;;;;;6.19;63.96;101937.91;10290314;28;20674;-70
2021/03/01 07:54:57;;;;;;;10.32;8.68;;;;;;;6.03;64.41;101920.00;10290223;28;20057;-68
2021/03/01 08:00:19;;;;;;;11.43;10.35;;;;;;;6.29;64.23;101932.28;10291800;28;20130;-70
2021/03/01 08:05:29;;;;;;;10.85;9.75;;;;;;;6.52;63.69;101934.09;10308157;28;20069;-73
2021/03/01 08:10:30;;;;;;;9.27;8.35;;;;;;;6.86;63.03;101933.72;10293001;28;20082;-71
2021/03/01 08:15:40;;;;;;;10.60;9.60;;;;;;;7.01;61.85;101940.19;10295250;28;20051;-73
2021/03/01 08:20:44;;;;;;;10.07;9.07;;;;;;;7.26;61.29;101933.94;10293401;28;20038;-70
2021/03/01 08:25:48;;;;;;;;;;;;;;;7.71;60.23;101940.94;10297331;28;20047;-69
2021/03/01 08:30:54;;;;;;;9.60;8.60;;;;;;;7.83;59.87;101938.72;10292881;28;19972;-69
2021/03/01 08:35:59;;;;;;;10.65;9.65;;;;;;;7.93;59.37;101935.59;10295632;28;20517;-70
2021/03/01 08:41:00;;;;;;;10.10;8.90;;;;;;;8.17;58.50;101937.25;10294040;28;20062;-71
2021/03/01 08:46:07;;;;;;;9.40;8.50;;;;;;;8.30;57.48;101941.97;10307999;28;20444;-72
2021/03/01 08:51:09;;;;;;;9.88;8.88;;;;;;;8.43;57.41;101938.75;10292970;28;20050;-71
2021/03/01 08:56:19;;;;;;;8.07;7.32;;;;;;;8.74;56.68;101930.31;10296439;28;20046;-70
2021/03/01 09:01:20;;;;;;;8.48;7.63;;;;;;;9.03;55.13;101934.25;10323132;28;20496;-71
2021/03/01 09:06:22;;;;;;;8.70;7.85;;;;;;;9.46;55.09;101938.47;10303811;28;20050;-71
2021/03/01 09:11:30;;;;;;;8.02;7.25;;;;;;;9.78;53.65;101936.84;10306581;28;20058;-69
2021/03/01 09:16:36;;;;;;;8.43;7.63;;;;;;;10.17;52.68;101927.75;10332997;28;20056;-70
2021/03/01 09:21:43;;;;;;;7.75;7.05;;;;;;;10.53;51.17;101936.59;10315279;28;20057;-70
2021/03/01 09:26:45;;;;;;;7.57;6.82;;;;;;;11.00;50.79;101937.59;10311930;28;20165;-71
2021/03/01 09:31:47;;;;;;;7.85;7.10;;;;;;;11.40;50.04;101920.22;10312145;28;20096;-71
2021/03/01 09:36:49;;;;;;;8.73;6.88;;;;;;;11.83;48.81;101916.84;10298413;28;20050;-70
2021/03/01 09:41:53;;;;;;;7.53;6.82;;;;;;;12.17;47.19;101920.19;10296671;28;20397;-70
2021/03/01 09:46:56;;;;;;;7.75;7.05;;;;;;;12.49;47.08;101912.00;10297623;28;20555;-73
2021/03/01 09:51:58;;;;;;;8.27;7.47;;;;;;;12.85;45.71;101898.16;10297047;28;20046;-69
2021/03/01 09:57:07;;;;;;;7.53;6.75;;;;;;;13.14;44.05;101894.56;10295477;28;20050;-71
2021/03/01 10:02:11;;;;;;;7.20;6.22;;;;;;;13.65;43.47;101894.75;10295105;28;20049;-71
2021/03/01 10:07:25;;;;;;;8.13;7.32;;;;;;;14.53;40.53;101899.38;10310290;28;20051;-71
2021/03/01 10:12:27;;;;;;;7.78;7.05;;;;;;;15.67;38.04;101887.53;10310107;28;20054;-70
2021/03/01 10:17:31;;;;;;;8.30;7.35;;;;;;;19.36;31.54;101870.19;10294757;28;20611;-74
2021/03/01 10:23:05;;;;;;;7.47;6.80;;;;;;;21.81;27.40;101875.34;10292952;28;20101;-71
2021/03/01 10:28:21;;;;;;;8.00;7.30;;;;;;;21.96;26.22;101879.16;10307732;28;20054;-74
2021/03/01 10:33:23;;;;;;;7.50;6.80;;;;;;;20.36;29.06;101874.31;10292796;28;20290;-72
2021/03/01 10:38:24;;;;;;;7.18;6.50;;;;;;;18.63;31.74;101865.94;10293380;28;20050;-72
2021/03/01 10:43:25;;;;;;;6.65;6.05;;;;;;;19.84;30.78;101871.19;10295378;28;20050;-70
2021/03/01 10:48:26;;;;;;;7.53;6.82;;;;;;;22.30;26.60;101869.38;10292906;28;20109;-70
2021/03/01 10:53:28;;;;;;;6.35;5.85;;;;;;;26.07;22.03;101844.97;10294791;28;20058;-72
2021/03/01 10:58:29;;;;;;;8.40;6.93;;;;;;;28.23;18.95;101837.91;10292056;28;20073;-69
2021/03/01 11:03:30;;;;;;;6.68;6.18;;;;;;;28.57;18.18;101843.34;10293815;28;20468;-74
2021/03/01 11:08:32;;;;;;;8.20;7.40;;;;;;;29.85;16.98;101836.16;10288917;28;20054;-71
2021/03/01 11:13:33;;;;;;;6.63;6.07;;;;;;;31.09;16.02;101824.25;10297322;28;20048;-72
2021/03/01 11:18:35;;;;;;;5.90;5.40;;;;;;;32.27;14.76;101813.44;10291887;28;20105;-71
2021/03/01 11:23:37;;;;;;;7.00;6.30;;;;;;;33.20;14.44;101811.28;10294921;28;20077;-72
2021/03/01 11:28:39;;;;;;;7.18;6.57;;;;;;;33.39;13.94;101804.59;10308332;28;20058;-73
2021/03/01 11:33:40;;;;;;;6.97;6.32;;;;;;;34.41;13.72;101804.34;10294102;28;20065;-72
2021/03/01 11:38:42;;;;;;;5.93;5.50;;;;;;;34.86;12.74;101801.66;10292126;28;20038;-71
2021/03/01 11:43:44;;;;;;;6.40;5.90;;;;;;;35.29;12.21;101784.66;10310897;28;20054;-72
2021/03/01 11:48:46;;;;;;;6.60;6.07;;;;;;;35.44;11.42;101778.53;10305645;28;20073;-76
2021/03/01 11:53:48;;;;;;;6.25;5.68;;;;;;;35.45;12.24;101772.75;10317718;28;20142;-72
2021/03/01 11:58:49;;;;;;;6.00;5.45;;;;;;;36.15;11.62;101759.25;10294381;28;20073;-72
2021/03/01 12:03:50;;;;;;;6.28;5.78;;;;;;;37.43;11.34;101753.22;10309427;28;20047;-71
2021/03/01 12:08:52;;;;;;;6.57;5.85;;;;;;;37.44;10.71;101733.56;10316887;28;20104;-76
2021/03/01 12:13:54;;;;;;;6.60;5.97;;;;;;;37.29;11.23;101739.84;10324059;28;20049;-74
2021/03/01 12:18:55;;;;;;;6.05;5.60;;;;;;;38.25;10.95;101723.06;10293492;28;20070;-72
2021/03/01 12:23:57;;;;;;;5.90;5.30;;;;;;;38.85;9.74;101719.78;10294145;28;20047;-72
2021/03/01 12:29:00;;;;;;;5.88;5.38;;;;;;;38.41;10.02;101711.97;10292644;28;20108;-71
2021/03/01 12:34:02;;;;;;;5.85;5.25;;;;;;;38.72;9.82;101710.91;10295767;28;20050;-71
2021/03/01 12:39:04;;;;;;;6.03;5.50;;;;;;;38.83;9.83;101691.41;10299945;28;20203;-71
2021/03/01 12:44:06;;;;;;;5.60;4.72;;;;;;;39.07;9.34;101675.78;10298581;28;20250;-71
2021/03/01 12:49:08;;;;;;;5.43;5.00;;;;;;;39.19;9.51;101677.47;10300000;28;20053;-71
2021/03/01 12:54:09;;;;;;;6.13;5.63;;;;;;;39.71;8.97;101673.38;10299952;28;20137;-71
2021/03/01 12:59:11;;;;;;;6.38;5.85;;;;;;;38.74;9.86;101670.84;10300173;28;20489;-72
2021/03/01 13:04:12;;;;;;;5.65;5.07;;;;;;;39.11;9.31;101664.97;10304189;28;20050;-72
2021/03/01 13:09:15;;;;;;;4.80;4.20;;;;;;;40.71;10.09;101662.09;10299033;28;20490;-71
2021/03/01 13:14:19;;;;;;;5.22;4.82;;;;;;;40.37;8.73;101650.94;10299565;28;20054;-72
2021/03/01 13:19:21;;;;;;;5.32;4.82;;;;;;;40.11;8.84;101648.34;10298208;28;20059;-72
2021/03/01 13:24:22;;;;;;;4.80;4.40;;;;;;;40.37;9.24;101646.19;10297653;28;20073;-70
2021/03/01 13:29:23;;;;;;;5.53;5.03;;;;;;;40.45;8.62;101642.78;10298632;28;20214;-74
2021/03/01 13:34:25;;;;;;;5.45;4.95;;;;;;;40.17;8.49;101632.41;10296113;28;20176;-70
2021/03/01 13:39:26;;;;;;;4.78;4.38;;;;;;;40.08;8.90;101632.19;10294095;28;20354;-71
2021/03/01 13:44:28;;;;;;;5.20;4.80;;;;;;;39.72;8.93;101618.47;10295074;28;20130;-70
2021/03/01 13:49:30;;;;;;;4.72;4.43;;;;;;;40.38;8.75;101617.16;10308096;28;20069;-71
2021/03/01 13:54:31;;;;;;;5.22;4.82;;;;;;;39.61;9.14;101617.72;10298087;28;20409;-72
2021/03/01 13:59:32;;;;;;;4.38;4.07;;;;;;;39.54;8.86;101611.59;10293799;28;20117;-71
2021/03/01 14:04:34;;;;;;;5.05;4.57;;;;;;;39.61;9.06;101601.00;10299253;28;20058;-71
2021/03/01 14:09:35;;;;;;;4.43;4.13;;;;;;;38.92;9.28;101592.34;10314211;28;20054;-74
2021/03/01 14:14:38;;;;;;;5.47;4.05;;;;;;;39.60;9.32;101590.97;10298713;28;20081;-74
2021/03/01 14:19:39;;;;;;;6.15;5.55;;;;;;;39.01;9.34;101585.06;10300091;28;20053;-72
2021/03/01 14:24:57;;;;;;;4.63;4.20;;;;;;;38.98;9.85;101591.19;10305569;28;20050;-73
2021/03/01 14:29:59;;;;;;;4.95;4.00;;;;;;;38.91;9.80;101582.31;10297455;28;20089;-71
2021/03/01 14:35:00;;;;;;;4.47;4.07;;;;;;;38.81;9.64;101590.69;10313928;28;20062;-72
2021/03/01 14:40:03;;;;;;;4.85;4.13;;;;;;;38.46;10.23;101586.81;10315323;28;20054;-73
2021/03/01 14:45:05;;;;;;;4.85;4.55;;;;;;;37.77;10.93;101578.72;10313962;28;20062;-70
2021/03/01 14:50:07;;;;;;;4.97;4.57;;;;;;;37.06;11.43;101577.31;10305206;28;20509;-72
2021/03/01 14:55:09;;;;;;;5.32;4.88;;;;;;;36.30;12.04;101575.69;10321520;28;20337;-72
2021/03/01 15:00:11;;;;;;;6.15;5.65;;;;;;;33.39;14.60;101572.81;10320487;28;20057;-73
2021/03/01 15:05:32;;;;;;;6.28;5.78;;;;;;;32.08;15.47;101571.91;10298601;28;20112;-71
2021/03/01 15:10:34;;;;;;;5.88;5.38;;;;;;;28.01;19.47;101569.81;10293600;28;20174;-72
2021/03/01 15:15:57;;;;;;;6.90;6.10;;;;;;;24.62;24.04;101573.53;10294121;28;20056;-72
2021/03/01 15:20:59;;;;;;;7.00;6.32;;;;;;;22.58;26.63;101568.88;10293743;28;20244;-71
2021/03/01 15:26:01;;;;;;;7.25;6.65;;;;;;;21.31;28.71;101577.00;10308701;28;20042;-72
2021/03/01 15:31:03;;;;;;;6.97;6.38;;;;;;;19.35;31.98;101572.38;10292690;28;20215;-71
2021/03/01 15:36:07;;;;;;;7.93;7.22;;;;;;;18.83;33.47;101564.69;10290338;28;20134;-71
2021/03/01 15:41:08;;;;;;;6.50;6.00;;;;;;;18.48;34.28;101566.19;10292113;28;20058;-72
2021/03/01 15:46:10;;;;;;;7.35;6.65;;;;;;;17.97;35.63;101557.41;10294603;28;20054;-71
2021/03/01 15:51:11;;;;;;;6.43;5.93;;;;;;;17.50;36.12;101557.13;10307173;28;20154;-73
2021/03/01 15:56:13;;;;;;;7.50;6.70;;;;;;;17.15;37.09;101563.78;10292497;28;20061;-72
2021/03/01 16:01:14;;;;;;;7.00;6.40;;;;;;;17.04;37.62;101559.34;10294885;28;20050;-71
2021/03/01 16:06:16;;;;;;;7.72;7.00;;;;;;;16.65;38.39;101551.03;10294087;28;20405;-72
2021/03/01 16:11:17;;;;;;;6.95;6.35;;;;;;;16.25;38.75;101563.31;10292426;28;20054;-72
2021/03/01 16:16:19;;;;;;;7.75;7.03;;;;;;;16.09;40.02;101552.16;10291858;28;20046;-68
2021/03/01 16:21:21;;;;;;;7.93;7.18;;;;;;;15.91;39.96;101557.22;10292753;28;20984;-72
2021/03/01 16:26:22;;;;;;;7.43;6.40;;;;;;;15.32;41.88;101550.34;10314244;23;20058;-64
2021/03/01 16:31:27;;;;;;;7.88;7.07;;;;;;;15.33;42.17;101552.91;10300607;28;20117;-66
2021/03/01 16:36:31;;;;;;;7.15;6.43;;;;;;;15.02;42.14;101558.00;10285927;28;20038;-66
2021/03/01 16:41:34;;;;;;;8.45;6.95;;;;;;;14.62;43.11;101554.91;10282419;28;20140;-66
2021/03/01 16:46:38;;;;;;;6.85;6.22;;;;;;;14.44;43.35;101558.00;10268892;28;20066;-65
2021/03/01 16:51:40;;;;;;;6.93;6.32;;;;;;;14.00;44.40;101559.50;10272448;28;20058;-65
2021/03/01 16:56:43;;;;;;;8.77;7.18;;;;;;;13.39;46.00;101551.47;10283823;28;20510;-65
2021/03/01 17:01:45;;;;;;;8.02;6.60;;;;;;;13.43;46.87;101567.16;10269891;28;20512;-66
2021/03/01 17:07:01;;;;;;;8.05;7.30;;;;;;;13.23;46.97;101557.03;10268905;28;20039;-65
2021/03/01 17:12:04;;;;;;;7.93;6.80;;;;;;;13.23;47.47;101573.91;10260855;28;20140;-65
2021/03/01 17:17:07;;;;;;;7.68;6.88;;;;;;;13.01;47.71;101576.41;10263823;28;20078;-66
2021/03/01 17:22:09;;;;;;;7.45;6.47;;;;;;;12.76;48.63;101585.25;10271003;28;20042;-67
2021/03/01 17:27:26;;;;;;;7.72;6.93;;;;;;;12.60;49.30;101597.00;10257195;28;20177;-65
2021/03/01 17:32:28;;;;;;;7.38;6.68;;;;;;;12.53;49.77;101601.03;10250986;28;20733;-65
2021/03/01 17:37:30;;;;;;;7.55;6.53;;;;;;;12.62;49.63;101610.25;10263723;28;20762;-66
2021/03/01 17:42:37;;;;;;;7.30;6.30;;;;;;;12.37;50.51;101612.75;10256839;28;21286;-65
2021/03/01 17:47:42;;;;;;;7.85;6.68;;;;;;;12.31;50.40;101615.81;10260493;28;20046;-65
2021/03/01 17:52:43;;;;;;;7.93;7.13;;;;;;;12.16;51.19;101619.47;10262545;28;20050;-65
2021/03/01 17:57:50;;;;;;;7.72;6.88;;;;;;;12.19;51.62;101630.84;10266526;28;20122;-65
2021/03/01 18:02:59;;;;;;;7.40;6.60;;;;;;;12.05;51.95;101632.69;10258580;28;20059;-65
2021/03/01 18:08:04;;;;;;;7.22;6.53;;;;;;;12.06;51.42;101639.75;10274830;28;20062;-64
2021/03/01 18:13:09;;;;;;;14.98;7.85;;;;;;;11.86;52.64;101649.84;10276494;28;20054;-65
2021/03/01 18:18:11;;;;;;;7.22;6.53;;;;;;;11.83;53.11;101644.72;10271648;28;20361;-65
2021/03/01 18:23:13;;;;;;;9.43;6.78;;;;;;;11.84;52.92;101641.06;10256892;28;20101;-65
2021/03/01 18:28:18;;;;;;;7.72;7.00;;;;;;;11.80;52.83;101637.75;10261982;28;20118;-67
2021/03/01 18:33:50;;;;;;;8.25;7.25;;;;;;;11.70;53.35;101644.63;10257715;28;20061;-67
2021/03/01 18:39:03;;;;;;;7.63;6.93;;;;;;;11.70;53.38;101638.44;10277194;28;20537;-66
2021/03/01 18:44:06;;;;;;;8.10;7.32;;;;;;;11.68;53.50;101644.72;10249002;28;20126;-67
2021/03/01 18:49:09;;;;;;;7.75;6.68;;;;;;;11.54;54.10;101655.38;10265601;28;20061;-67
2021/03/01 18:54:11;;;;;;;8.85;7.40;;;;;;;11.29;54.56;101643.59;10261858;28;20065;-67
2021/03/01 18:59:12;;;;;;;8.40;7.55;;;;;;;11.31;54.08;101643.50;10263237;28;20109;-67
2021/03/01 19:04:13;;;;;;;7.68;6.88;;;;;;;11.09;55.20;101643.94;10271399;28;20070;-67
2021/03/01 19:09:15;;;;;;;8.25;7.30;;;;;;;11.09;55.31;101649.28;10275466;28;20080;-66
2021/03/01 19:14:16;;;;;;;10.15;7.53;;;;;;;11.63;63.17;101652.16;10275759;28;20055;-65
2021/03/01 19:19:17;;;;;;;9.02;8.13;;;;;;;12.13;55.42;101646.38;10262288;28;20058;-67
2021/03/01 19:24:19;;;;;;;8.35;7.55;;;;;;;12.50;54.15;101644.81;10260386;28;20129;-66
2021/03/01 19:29:21;;;;;;;8.32;7.13;;;;;;;12.79;52.75;101646.50;10264943;28;20054;-66
2021/03/01 19:34:22;;;;;;;7.97;7.18;;;;;;;12.88;52.73;101651.19;10260102;28;20062;-66
2021/03/01 19:39:24;;;;;;;8.68;7.88;;;;;;;12.36;51.67;101643.06;10255019;28;20059;-67
2021/03/01 19:44:25;;;;;;;8.90;8.00;;;;;;;11.88;53.14;101649.75;10257207;28;20043;-67
2021/03/01 19:49:26;;;;;;;8.50;7.68;;;;;;;11.60;54.10;101638.16;10265461;28;20077;-70
2021/03/01 19:54:28;;;;;;;8.43;7.60;;;;;;;11.32;54.73;101635.41;10262987;28;20061;-65
2021/03/01 19:59:30;;;;;;;9.73;8.82;;;;;;;11.14;55.22;101636.53;10276695;28;20055;-67
2021/03/01 20:04:31;;;;;;;10.13;9.13;;;;;;;11.04;55.68;101622.06;10268974;28;20070;-66
2021/03/01 20:09:36;;;;;;;10.85;9.75;;;;;;;11.05;55.47;101623.75;10263019;28;20113;-65
2021/03/01 20:14:37;;;;;;;9.25;8.35;;;;;;;10.92;55.48;101621.84;10263734;28;20110;-66
2021/03/01 20:19:39;;;;;;;9.75;8.55;;;;;;;10.83;55.85;101633.03;10252328;28;20051;-66
2021/03/01 20:24:42;;;;;;;9.75;8.32;;;;;;;10.70;55.88;101626.72;10254932;28;20055;-67
2021/03/01 20:29:43;;;;;;;9.07;8.18;;;;;;;10.61;56.40;101634.31;10262699;28;20047;-66
2021/03/01 20:34:44;;;;;;;9.30;8.40;;;;;;;10.63;56.11;101631.56;10262295;28;20057;-65
2021/03/01 20:39:46;;;;;;;8.60;7.72;;;;;;;10.56;56.26;101639.03;10258863;28;20061;-66
2021/03/01 20:44:47;;;;;;;10.27;8.38;;;;;;;10.50;56.67;101634.09;10267386;28;20062;-65
2021/03/01 20:49:49;;;;;;;8.35;7.55;;;;;;;10.46;56.65;101632.53;10270471;28;20165;-68
2021/03/01 20:54:50;;;;;;;10.80;8.90;;;;;;;10.38;56.75;101632.97;10269007;28;20059;-68
2021/03/01 20:59:54;;;;;;;9.05;8.07;;;;;;;10.32;56.60;101633.31;10267708;28;20050;-69
2021/03/01 21:04:56;;;;;;;14.65;12.80;;;;;;;10.33;56.52;101640.38;10260514;28;20518;-65
2021/03/01 21:09:59;;;;;;;11.30;9.60;;;;;;;10.25;56.87;101642.59;10267484;28;20059;-68
2021/03/01 21:15:00;;;;;;;8.75;7.85;;;;;;;10.16;57.06;101635.13;10275587;28;20055;-65
2021/03/01 21:20:02;;;;;;;9.50;8.60;;;;;;;10.18;57.04;101644.75;10269723;28;20055;-67
2021/03/01 21:25:05;;;;;;;9.80;7.93;;;;;;;10.15;57.11;101652.03;10264072;28;20137;-66
2021/03/01 21:30:08;;;;;;;8.73;7.78;;;;;;;9.91;57.66;101637.38;10259778;28;20054;-67
2021/03/01 21:35:10;;;;;;;9.02;8.05;;;;;;;9.94;58.01;101643.44;10250573;28;20050;-66
2021/03/01 21:40:13;;;;;;;9.75;8.73;;;;;;;9.82;58.24;101640.53;10249011;28;20435;-65
2021/03/01 21:45:15;;;;;;;10.05;8.07;;;;;;;9.73;58.07;101625.94;10263068;28;20058;-66
2021/03/01 21:50:17;;;;;;;10.57;9.35;;;;;;;9.66;58.51;101645.00;10265607;28;20051;-67
2021/03/01 21:55:20;;;;;;;9.77;8.77;;;;;;;9.61;58.75;101655.88;10255792;28;20059;-66
2021/03/01 22:00:22;;;;;;;9.35;8.35;;;;;;;9.55;58.12;101665.03;10243855;28;20419;-67
2021/03/01 22:05:23;;;;;;;9.38;8.52;;;;;;;9.45;58.50;101657.63;10257229;28;20458;-66
2021/03/01 22:10:25;;;;;;;9.13;8.30;;;;;;;9.45;59.05;101669.13;10258047;28;20497;-67
2021/03/01 22:15:26;;;;;;;9.05;8.15;;;;;;;9.41;58.58;101662.25;10258033;28;20050;-68
2021/03/01 22:20:28;;;;;;;8.73;7.82;;;;;;;9.40;58.46;101673.84;10268287;28;20057;-65
2021/03/01 22:25:29;;;;;;;8.77;7.88;;;;;;;9.30;58.97;101675.25;10282262;28;20050;-66
2021/03/01 22:30:56;;;;;;;10.07;9.07;;;;;;;9.14;58.72;101659.25;10267404;28;20046;-66
2021/03/01 22:35:58;;;;;;;9.05;8.10;;;;;;;9.22;59.22;101677.44;10272826;23;20530;-62
2021/03/01 22:41:03;;;;;;;10.48;7.88;;;;;;;9.18;59.11;101677.59;10271890;28;20142;-61
2021/03/01 22:46:04;;;;;;;8.38;7.57;;;;;;;9.16;59.18;101674.16;10266365;28;20055;-61
2021/03/01 22:51:06;;;;;;;9.90;8.68;;;;;;;9.14;59.13;101681.38;10270344;28;20058;-61
2021/03/01 22:56:08;;;;;;;9.98;8.98;;;;;;;9.11;59.32;101681.53;10271406;28;20050;-61
2021/03/01 23:01:10;;;;;;;9.10;8.15;;;;;;;9.05;59.21;101676.50;10256154;28;20058;-61
2021/03/01 23:06:11;;;;;;;9.70;8.70;;;;;;;8.98;59.36;101669.81;10269234;28;20054;-61
2021/03/01 23:11:14;;;;;;;10.10;9.02;;;;;;;8.97;59.21;101668.94;10273982;28;20053;-61
2021/03/01 23:16:15;;;;;;;9.10;8.18;;;;;;;8.77;59.64;101659.34;10276298;28;20057;-62